PWSweather.com
Personal Weather Stations
Station Observations
270882
Flassian, LimouxFR 11300

FlassianLimouxFR 11300

Lat: 43.071798, Lon: 2.217292

Elevation: 165

Station Type: Oregon WMR 200

http://www.meteolimoux.fr

High Low Average
Temperature 79.0°F26.1°C 44.8°F7.1°C 60.4°F15.8°C
Dew Point 56.3°F13.5°C 39.2°F4.0°C 49.2°F9.6°C
Winds 10.1 mph 16.3 kmh Calm Calm 3.0 mph NE4.8 kmh NE
Wind Gusts 15.4 mph24.8 kmh -- 4.0 mph6.4 kmh
Humidity 85% 44% 69%
Pressure 30.28 in1025.4 mb 30.07 in1018.3 mb -
Precipitation 0.00 in0.0 mm - -
Hour Temp Dew Point Humidity Winds Wind Gusts Pressure Precip Precip Rate Daily Precip Total
12:02 AM 53.2°F11.8°C 46.6°F8.1°C 78% 1.3 mph WSW2.1 kmh WSW 3.8 mph6.1 kmh 30.16 in1021.3 mb - 0.00 in0.0 mm 0.00 in0.0 mm
12:07 AM 53.2°F11.8°C 46.6°F8.1°C 78% 2.7 mph W4.3 kmh W 4.0 mph6.4 kmh 30.16 in1021.3 mb - 0.00 in0.0 mm 0.00 in0.0 mm
12:12 AM 53.2°F11.8°C 46.6°F8.1°C 78% 1.8 mph W2.9 kmh W 3.1 mph5.0 kmh 30.13 in1020.3 mb - 0.00 in0.0 mm 0.00 in0.0 mm
12:17 AM 53.1°F11.7°C 46.4°F8.0°C 78% 0.9 mph SW1.4 kmh SW 3.4 mph5.5 kmh 30.13 in1020.3 mb - 0.00 in0.0 mm 0.00 in0.0 mm
12:22 AM 53.1°F11.7°C 46.4°F8.0°C 78% 0.9 mph W1.4 kmh W 2.9 mph4.7 kmh 30.13 in1020.3 mb - 0.00 in0.0 mm 0.00 in0.0 mm
12:27 AM 53.1°F11.7°C 46.8°F8.2°C 79% Calm Calm -- 30.13 in1020.3 mb - 0.00 in0.0 mm 0.00 in0.0 mm
12:32 AM 52.9°F11.6°C 46.6°F8.1°C 79% Calm Calm -- 30.13 in1020.3 mb - 0.00 in0.0 mm 0.00 in0.0 mm
12:37 AM 52.7°F11.5°C 46.0°F7.8°C 78% Calm Calm -- 30.13 in1020.3 mb - 0.00 in0.0 mm 0.00 in0.0 mm
12:42 AM 52.7°F11.5°C 46.0°F7.8°C 78% Calm Calm -- 30.16 in1021.3 mb - 0.00 in0.0 mm 0.00 in0.0 mm
12:47 AM 52.7°F11.5°C 46.4°F8.0°C 79% 0.7 mph WSW1.1 kmh WSW 3.4 mph5.5 kmh 30.16 in1021.3 mb - 0.00 in0.0 mm 0.00 in0.0 mm
12:52 AM 52.5°F11.4°C 46.2°F7.9°C 79% 2.2 mph WSW3.5 kmh WSW 4.5 mph7.2 kmh 30.16 in1021.3 mb - 0.00 in0.0 mm 0.00 in0.0 mm
12:57 AM 52.5°F11.4°C 46.2°F7.9°C 79% 2.0 mph SW3.2 kmh SW 3.8 mph6.1 kmh 30.13 in1020.3 mb - 0.00 in0.0 mm 0.00 in0.0 mm
01:02 AM 52.5°F11.4°C 46.2°F7.9°C 79% 2.0 mph SW3.2 kmh SW 4.3 mph6.9 kmh 30.13 in1020.3 mb - 0.00 in0.0 mm 0.00 in0.0 mm
01:07 AM 52.3°F11.3°C 45.7°F7.6°C 78% 0.7 mph SW1.1 kmh SW 3.4 mph5.5 kmh 30.13 in1020.3 mb - 0.00 in0.0 mm 0.00 in0.0 mm
01:12 AM 52.2°F11.2°C 45.5°F7.5°C 78% Calm Calm -- 30.13 in1020.3 mb - 0.00 in0.0 mm 0.00 in0.0 mm
01:17 AM 52.0°F11.1°C 45.3°F7.4°C 78% Calm Calm -- 30.13 in1020.3 mb - 0.00 in0.0 mm 0.00 in0.0 mm
01:22 AM 51.8°F11.0°C 45.1°F7.3°C 78% Calm Calm -- 30.13 in1020.3 mb - 0.00 in0.0 mm 0.00 in0.0 mm
01:27 AM 51.8°F11.0°C 45.1°F7.3°C 78% Calm Calm -- 30.13 in1020.3 mb - 0.00 in0.0 mm 0.00 in0.0 mm
01:32 AM 51.6°F10.9°C 45.0°F7.2°C 78% Calm Calm -- 30.13 in1020.3 mb - 0.00 in0.0 mm 0.00 in0.0 mm
01:37 AM 51.4°F10.8°C 44.8°F7.1°C 78% Calm Calm -- 30.13 in1020.3 mb - 0.00 in0.0 mm 0.00 in0.0 mm
01:42 AM 51.4°F10.8°C 44.8°F7.1°C 78% Calm Calm -- 30.13 in1020.3 mb - 0.00 in0.0 mm 0.00 in0.0 mm
01:47 AM 51.3°F10.7°C 44.6°F7.0°C 78% Calm Calm -- 30.13 in1020.3 mb - 0.00 in0.0 mm 0.00 in0.0 mm
01:52 AM 51.3°F10.7°C 44.6°F7.0°C 78% Calm Calm -- 30.13 in1020.3 mb - 0.00 in0.0 mm 0.00 in0.0 mm
01:57 AM 51.3°F10.7°C 45.0°F7.2°C 79% Calm Calm -- 30.13 in1020.3 mb - 0.00 in0.0 mm 0.00 in0.0 mm
02:02 AM 51.3°F10.7°C 45.7°F7.6°C 81% Calm Calm -- 30.13 in1020.3 mb - 0.00 in0.0 mm 0.00 in0.0 mm
02:07 AM 51.4°F10.8°C 46.2°F7.9°C 82% Calm Calm -- 30.13 in1020.3 mb - 0.00 in0.0 mm 0.00 in0.0 mm
02:12 AM 51.4°F10.8°C 45.9°F7.7°C 81% 2.2 mph W3.5 kmh W 4.5 mph7.2 kmh 30.19 in1022.4 mb - 0.00 in0.0 mm 0.00 in0.0 mm
02:17 AM 51.4°F10.8°C 45.5°F7.5°C 80% 0.4 mph WSW0.6 kmh WSW 3.6 mph5.8 kmh 30.19 in1022.4 mb - 0.00 in0.0 mm 0.00 in0.0 mm
02:22 AM 51.3°F10.7°C 45.3°F7.4°C 80% Calm Calm -- 30.19 in1022.4 mb - 0.00 in0.0 mm 0.00 in0.0 mm
02:27 AM 51.1°F10.6°C 45.1°F7.3°C 80% Calm Calm -- 30.16 in1021.3 mb - 0.00 in0.0 mm 0.00 in0.0 mm
02:32 AM 51.1°F10.6°C 44.8°F7.1°C 79% Calm Calm 1.3 mph2.1 kmh 30.16 in1021.3 mb - 0.00 in0.0 mm 0.00 in0.0 mm
02:37 AM 50.9°F10.5°C 44.6°F7.0°C 79% Calm Calm -- 30.16 in1021.3 mb - 0.00 in0.0 mm 0.00 in0.0 mm
02:42 AM 50.7°F10.4°C 44.4°F6.9°C 79% Calm Calm -- 30.16 in1021.3 mb - 0.00 in0.0 mm 0.00 in0.0 mm
02:47 AM 50.5°F10.3°C 44.2°F6.8°C 79% Calm Calm -- 30.16 in1021.3 mb - 0.00 in0.0 mm 0.00 in0.0 mm
02:52 AM 50.0°F10.0°C 43.3°F6.3°C 78% Calm Calm -- 30.16 in1021.3 mb - 0.00 in0.0 mm 0.00 in0.0 mm
02:57 AM 49.3°F9.6°C 42.8°F6.0°C 78% Calm Calm -- 30.16 in1021.3 mb - 0.00 in0.0 mm 0.00 in0.0 mm
03:02 AM 48.9°F9.4°C 42.4°F5.8°C 78% Calm Calm -- 30.16 in1021.3 mb - 0.00 in0.0 mm 0.00 in0.0 mm
03:07 AM 48.6°F9.2°C 42.1°F5.6°C 78% Calm Calm -- 30.16 in1021.3 mb - 0.00 in0.0 mm 0.00 in0.0 mm
03:12 AM 48.4°F9.1°C 41.9°F5.5°C 78% Calm Calm -- 30.16 in1021.3 mb - 0.00 in0.0 mm 0.00 in0.0 mm
03:17 AM 48.2°F9.0°C 42.1°F5.6°C 79% Calm Calm -- 30.16 in1021.3 mb - 0.00 in0.0 mm 0.00 in0.0 mm
03:22 AM 48.0°F8.9°C 41.5°F5.3°C 78% Calm Calm -- 30.16 in1021.3 mb - 0.00 in0.0 mm 0.00 in0.0 mm
03:27 AM 47.8°F8.8°C 41.7°F5.4°C 79% Calm Calm -- 30.16 in1021.3 mb - 0.00 in0.0 mm 0.00 in0.0 mm
03:32 AM 47.7°F8.7°C 41.5°F5.3°C 79% Calm Calm -- 30.16 in1021.3 mb - 0.00 in0.0 mm 0.00 in0.0 mm
03:37 AM 47.7°F8.7°C 41.5°F5.3°C 79% Calm Calm -- 30.16 in1021.3 mb - 0.00 in0.0 mm 0.00 in0.0 mm
03:42 AM 47.5°F8.6°C 41.4°F5.2°C 79% Calm Calm -- 30.16 in1021.3 mb - 0.00 in0.0 mm 0.00 in0.0 mm
03:47 AM 47.5°F8.6°C 41.4°F5.2°C 79% Calm Calm -- 30.16 in1021.3 mb - 0.00 in0.0 mm 0.00 in0.0 mm
03:52 AM 47.3°F8.5°C 41.2°F5.1°C 79% Calm Calm -- 30.16 in1021.3 mb - 0.00 in0.0 mm 0.00 in0.0 mm
03:57 AM 47.3°F8.5°C 41.5°F5.3°C 80% Calm Calm -- 30.16 in1021.3 mb - 0.00 in0.0 mm 0.00 in0.0 mm
04:02 AM 47.7°F8.7°C 41.7°F5.4°C 80% Calm Calm -- 30.16 in1021.3 mb - 0.00 in0.0 mm 0.00 in0.0 mm
04:07 AM 47.7°F8.7°C 41.7°F5.4°C 80% Calm Calm -- 30.16 in1021.3 mb - 0.00 in0.0 mm 0.00 in0.0 mm
04:12 AM 47.7°F8.7°C 42.1°F5.6°C 81% Calm Calm -- 30.16 in1021.3 mb - 0.00 in0.0 mm 0.00 in0.0 mm
04:17 AM 47.7°F8.7°C 41.7°F5.4°C 80% Calm Calm -- 30.16 in1021.3 mb - 0.00 in0.0 mm 0.00 in0.0 mm
04:22 AM 47.7°F8.7°C 42.1°F5.6°C 81% Calm Calm -- 30.16 in1021.3 mb - 0.00 in0.0 mm 0.00 in0.0 mm
04:27 AM 47.8°F8.8°C 42.3°F5.7°C 81% 0.4 mph W0.6 kmh W 2.9 mph4.7 kmh 30.16 in1021.3 mb - 0.00 in0.0 mm 0.00 in0.0 mm
04:32 AM 47.7°F8.7°C 42.1°F5.6°C 81% 0.2 mph WSW0.3 kmh WSW 2.2 mph3.5 kmh 30.16 in1021.3 mb - 0.00 in0.0 mm 0.00 in0.0 mm
04:37 AM 47.7°F8.7°C 42.1°F5.6°C 81% Calm Calm -- 30.16 in1021.3 mb - 0.00 in0.0 mm 0.00 in0.0 mm
04:42 AM 47.7°F8.7°C 42.1°F5.6°C 81% Calm Calm -- 30.16 in1021.3 mb - 0.00 in0.0 mm 0.00 in0.0 mm
04:47 AM 47.5°F8.6°C 41.9°F5.5°C 81% Calm Calm -- 30.16 in1021.3 mb - 0.00 in0.0 mm 0.00 in0.0 mm
04:52 AM 47.1°F8.4°C 41.4°F5.2°C 80% Calm Calm -- 30.16 in1021.3 mb - 0.00 in0.0 mm 0.00 in0.0 mm
04:57 AM 46.8°F8.2°C 41.0°F5.0°C 80% Calm Calm -- 30.16 in1021.3 mb - 0.00 in0.0 mm 0.00 in0.0 mm
05:02 AM 46.4°F8.0°C 40.6°F4.8°C 80% Calm Calm -- 30.16 in1021.3 mb - 0.00 in0.0 mm 0.00 in0.0 mm
05:07 AM 46.2°F7.9°C 40.5°F4.7°C 80% Calm Calm -- 30.16 in1021.3 mb - 0.00 in0.0 mm 0.00 in0.0 mm
05:12 AM 46.0°F7.8°C 40.3°F4.6°C 80% Calm Calm -- 30.16 in1021.3 mb - 0.00 in0.0 mm 0.00 in0.0 mm
05:17 AM 45.9°F7.7°C 40.1°F4.5°C 80% Calm Calm -- 30.16 in1021.3 mb - 0.00 in0.0 mm 0.00 in0.0 mm
05:22 AM 45.9°F7.7°C 40.1°F4.5°C 80% Calm Calm -- 30.16 in1021.3 mb - 0.00 in0.0 mm 0.00 in0.0 mm
05:27 AM 45.7°F7.6°C 39.9°F4.4°C 80% Calm Calm -- 30.16 in1021.3 mb - 0.00 in0.0 mm 0.00 in0.0 mm
05:32 AM 45.7°F7.6°C 39.9°F4.4°C 80% Calm Calm -- 30.16 in1021.3 mb - 0.00 in0.0 mm 0.00 in0.0 mm
05:37 AM 45.7°F7.6°C 39.9°F4.4°C 80% Calm Calm -- 30.16 in1021.3 mb - 0.00 in0.0 mm 0.00 in0.0 mm
05:42 AM 45.5°F7.5°C 39.7°F4.3°C 80% Calm Calm -- 30.16 in1021.3 mb - 0.00 in0.0 mm 0.00 in0.0 mm
05:47 AM 45.5°F7.5°C 39.7°F4.3°C 80% Calm Calm -- 30.16 in1021.3 mb - 0.00 in0.0 mm 0.00 in0.0 mm
05:52 AM 45.3°F7.4°C 39.6°F4.2°C 80% Calm Calm -- 30.16 in1021.3 mb - 0.00 in0.0 mm 0.00 in0.0 mm
05:57 AM 45.1°F7.3°C 39.4°F4.1°C 80% Calm Calm -- 30.16 in1021.3 mb - 0.00 in0.0 mm 0.00 in0.0 mm
06:02 AM 45.1°F7.3°C 39.4°F4.1°C 80% Calm Calm -- 30.16 in1021.3 mb - 0.00 in0.0 mm 0.00 in0.0 mm
06:07 AM 45.0°F7.2°C 39.2°F4.0°C 80% Calm Calm -- 30.16 in1021.3 mb - 0.00 in0.0 mm 0.00 in0.0 mm
06:12 AM 45.0°F7.2°C 39.2°F4.0°C 80% Calm Calm -- 30.16 in1021.3 mb - 0.00 in0.0 mm 0.00 in0.0 mm
06:17 AM 45.1°F7.3°C 39.7°F4.3°C 81% Calm Calm -- 30.16 in1021.3 mb - 0.00 in0.0 mm 0.00 in0.0 mm
06:22 AM 45.0°F7.2°C 39.6°F4.2°C 81% Calm Calm -- 30.16 in1021.3 mb - 0.00 in0.0 mm 0.00 in0.0 mm
06:27 AM 45.0°F7.2°C 39.6°F4.2°C 81% Calm Calm -- 30.16 in1021.3 mb - 0.00 in0.0 mm 0.00 in0.0 mm
06:32 AM 45.0°F7.2°C 39.6°F4.2°C 81% Calm Calm -- 30.16 in1021.3 mb - 0.00 in0.0 mm 0.00 in0.0 mm
06:37 AM 44.8°F7.1°C 39.4°F4.1°C 81% Calm Calm -- 30.16 in1021.3 mb - 0.00 in0.0 mm 0.00 in0.0 mm
06:42 AM 45.0°F7.2°C 39.6°F4.2°C 81% Calm Calm -- 30.16 in1021.3 mb - 0.00 in0.0 mm 0.00 in0.0 mm
06:47 AM 45.0°F7.2°C 39.6°F4.2°C 81% Calm Calm -- 30.16 in1021.3 mb - 0.00 in0.0 mm 0.00 in0.0 mm
06:52 AM 45.0°F7.2°C 39.6°F4.2°C 81% Calm Calm -- 30.16 in1021.3 mb - 0.00 in0.0 mm 0.00 in0.0 mm
06:57 AM 45.0°F7.2°C 39.6°F4.2°C 81% Calm Calm -- 30.16 in1021.3 mb - 0.00 in0.0 mm 0.00 in0.0 mm
07:02 AM 45.0°F7.2°C 39.6°F4.2°C 81% Calm Calm -- 30.16 in1021.3 mb - 0.00 in0.0 mm 0.00 in0.0 mm
07:07 AM 45.0°F7.2°C 39.7°F4.3°C 82% Calm Calm -- 30.16 in1021.3 mb - 0.00 in0.0 mm 0.00 in0.0 mm
07:12 AM 45.3°F7.4°C 40.1°F4.5°C 82% Calm Calm -- 30.16 in1021.3 mb - 0.00 in0.0 mm 0.00 in0.0 mm
07:17 AM 45.5°F7.5°C 40.6°F4.8°C 83% Calm Calm -- 30.16 in1021.3 mb - 0.00 in0.0 mm 0.00 in0.0 mm
07:22 AM 45.7°F7.6°C 40.8°F4.9°C 83% Calm Calm -- 30.16 in1021.3 mb - 0.00 in0.0 mm 0.00 in0.0 mm
07:27 AM 45.7°F7.6°C 40.8°F4.9°C 83% Calm Calm -- 30.19 in1022.4 mb - 0.00 in0.0 mm 0.00 in0.0 mm
07:32 AM 46.0°F7.8°C 41.2°F5.1°C 83% Calm Calm -- 30.19 in1022.4 mb - 0.00 in0.0 mm 0.00 in0.0 mm
07:37 AM 46.4°F8.0°C 41.9°F5.5°C 84% Calm Calm -- 30.19 in1022.4 mb - 0.00 in0.0 mm 0.00 in0.0 mm
07:42 AM 46.6°F8.1°C 42.1°F5.6°C 84% 0.7 mph WSW1.1 kmh WSW 2.9 mph4.7 kmh 30.19 in1022.4 mb - 0.00 in0.0 mm 0.00 in0.0 mm
07:47 AM 46.9°F8.3°C 42.4°F5.8°C 84% Calm Calm -- 30.19 in1022.4 mb - 0.00 in0.0 mm 0.00 in0.0 mm
07:52 AM 47.5°F8.6°C 43.0°F6.1°C 84% Calm Calm -- 30.19 in1022.4 mb - 0.00 in0.0 mm 0.00 in0.0 mm
07:57 AM 48.0°F8.9°C 43.3°F6.3°C 84% Calm Calm -- 30.16 in1021.3 mb - 0.00 in0.0 mm 0.00 in0.0 mm
08:02 AM 48.6°F9.2°C 44.2°F6.8°C 85% 0.2 mph SW0.3 kmh SW 2.0 mph3.2 kmh 30.16 in1021.3 mb - 0.00 in0.0 mm 0.00 in0.0 mm
08:07 AM 48.7°F9.3°C 44.1°F6.7°C 84% Calm Calm -- 30.16 in1021.3 mb - 0.00 in0.0 mm 0.00 in0.0 mm
08:12 AM 49.1°F9.5°C 44.4°F6.9°C 84% Calm Calm -- 30.13 in1020.3 mb - 0.00 in0.0 mm 0.00 in0.0 mm
08:17 AM 49.6°F9.8°C 45.0°F7.2°C 84% Calm Calm -- 30.13 in1020.3 mb - 0.00 in0.0 mm 0.00 in0.0 mm
08:22 AM 49.8°F9.9°C 45.1°F7.3°C 84% Calm Calm -- 30.13 in1020.3 mb - 0.00 in0.0 mm 0.00 in0.0 mm
08:27 AM 50.0°F10.0°C 45.1°F7.3°C 83% Calm Calm -- 30.16 in1021.3 mb - 0.00 in0.0 mm 0.00 in0.0 mm
08:32 AM 50.5°F10.3°C 45.5°F7.5°C 83% Calm Calm -- 30.16 in1021.3 mb - 0.00 in0.0 mm 0.00 in0.0 mm
08:37 AM 50.7°F10.4°C 45.7°F7.6°C 83% Calm Calm -- 30.16 in1021.3 mb - 0.00 in0.0 mm 0.00 in0.0 mm
08:42 AM 51.1°F10.6°C 45.9°F7.7°C 82% Calm Calm -- 30.16 in1021.3 mb - 0.00 in0.0 mm 0.00 in0.0 mm
08:47 AM 51.6°F10.9°C 46.4°F8.0°C 82% Calm Calm -- 30.16 in1021.3 mb - 0.00 in0.0 mm 0.00 in0.0 mm
08:52 AM 52.2°F11.2°C 46.8°F8.2°C 82% Calm Calm -- 30.16 in1021.3 mb - 0.00 in0.0 mm 0.00 in0.0 mm
08:57 AM 52.5°F11.4°C 46.9°F8.3°C 81% Calm Calm -- 30.16 in1021.3 mb - 0.00 in0.0 mm 0.00 in0.0 mm
09:02 AM 53.4°F11.9°C 47.7°F8.7°C 81% 0.7 mph SW1.1 kmh SW 2.9 mph4.7 kmh 30.16 in1021.3 mb - 0.00 in0.0 mm 0.00 in0.0 mm
09:07 AM 54.1°F12.3°C 48.4°F9.1°C 81% 1.1 mph SSW1.8 kmh SSW 3.1 mph5.0 kmh 30.16 in1021.3 mb - 0.00 in0.0 mm 0.00 in0.0 mm
09:12 AM 54.7°F12.6°C 48.6°F9.2°C 80% Calm Calm -- 30.16 in1021.3 mb - 0.00 in0.0 mm 0.00 in0.0 mm
09:17 AM 55.4°F13.0°C 49.3°F9.6°C 80% Calm Calm -- 30.16 in1021.3 mb - 0.00 in0.0 mm 0.00 in0.0 mm
09:22 AM 56.3°F13.5°C 49.8°F9.9°C 79% Calm Calm -- 30.16 in1021.3 mb - 0.00 in0.0 mm 0.00 in0.0 mm
09:27 AM 56.8°F13.8°C 50.0°F10.0°C 78% Calm Calm -- 30.16 in1021.3 mb - 0.00 in0.0 mm 0.00 in0.0 mm
09:32 AM 57.0°F13.9°C 49.5°F9.7°C 76% Calm Calm -- 30.16 in1021.3 mb - 0.00 in0.0 mm 0.00 in0.0 mm
09:37 AM 58.1°F14.5°C 50.9°F10.5°C 77% Calm Calm -- 30.16 in1021.3 mb - 0.00 in0.0 mm 0.00 in0.0 mm
09:42 AM 59.4°F15.2°C 52.2°F11.2°C 77% Calm Calm -- 30.16 in1021.3 mb - 0.00 in0.0 mm 0.00 in0.0 mm
09:47 AM 59.9°F15.5°C 52.0°F11.1°C 75% Calm Calm -- 30.16 in1021.3 mb - 0.00 in0.0 mm 0.00 in0.0 mm
09:52 AM 60.8°F16.0°C 52.9°F11.6°C 75% Calm Calm -- 30.16 in1021.3 mb - 0.00 in0.0 mm 0.00 in0.0 mm
09:57 AM 61.5°F16.4°C 52.3°F11.3°C 72% Calm Calm -- 30.19 in1022.4 mb - 0.00 in0.0 mm 0.00 in0.0 mm
10:02 AM 62.1°F16.7°C 52.9°F11.6°C 72% Calm Calm -- 30.19 in1022.4 mb - 0.00 in0.0 mm 0.00 in0.0 mm
10:07 AM 62.8°F17.1°C 52.9°F11.6°C 70% Calm Calm -- 30.19 in1022.4 mb - 0.00 in0.0 mm 0.00 in0.0 mm
10:12 AM 64.0°F17.8°C 53.6°F12.0°C 69% Calm Calm -- 30.16 in1021.3 mb - 0.00 in0.0 mm 0.00 in0.0 mm
10:17 AM 64.4°F18.0°C 53.2°F11.8°C 67% Calm Calm -- 30.16 in1021.3 mb - 0.00 in0.0 mm 0.00 in0.0 mm
10:22 AM 64.8°F18.2°C 53.1°F11.7°C 66% Calm Calm -- 30.16 in1021.3 mb - 0.00 in0.0 mm 0.00 in0.0 mm
10:27 AM 65.1°F18.4°C 54.0°F12.2°C 67% Calm Calm -- 30.16 in1021.3 mb - 0.00 in0.0 mm 0.00 in0.0 mm
10:32 AM 65.5°F18.6°C 53.8°F12.1°C 66% Calm Calm -- 30.16 in1021.3 mb - 0.00 in0.0 mm 0.00 in0.0 mm
10:37 AM 66.2°F19.0°C 54.1°F12.3°C 65% Calm Calm -- 30.16 in1021.3 mb - 0.00 in0.0 mm 0.00 in0.0 mm
10:42 AM 66.9°F19.4°C 54.9°F12.7°C 65% 0.2 mph SW0.3 kmh SW 1.6 mph2.6 kmh 30.16 in1021.3 mb - 0.00 in0.0 mm 0.00 in0.0 mm
10:47 AM 67.1°F19.5°C 53.6°F12.0°C 62% 0.2 mph SW0.3 kmh SW 2.0 mph3.2 kmh 30.16 in1021.3 mb - 0.00 in0.0 mm 0.00 in0.0 mm
10:52 AM 67.5°F19.7°C 54.5°F12.5°C 63% 2.0 mph ENE3.2 kmh ENE 6.3 mph10.1 kmh 30.16 in1021.3 mb - 0.00 in0.0 mm 0.00 in0.0 mm
10:57 AM 68.0°F20.0°C 54.5°F12.5°C 62% 3.6 mph N5.8 kmh N 6.9 mph11.1 kmh 30.16 in1021.3 mb - 0.00 in0.0 mm 0.00 in0.0 mm
11:02 AM 68.2°F20.1°C 54.1°F12.3°C 61% 2.0 mph NNE3.2 kmh NNE 7.6 mph12.2 kmh 30.16 in1021.3 mb - 0.00 in0.0 mm 0.00 in0.0 mm
11:07 AM 68.5°F20.3°C 54.1°F12.3°C 60% 3.1 mph NE5.0 kmh NE 6.5 mph10.5 kmh 30.16 in1021.3 mb - 0.00 in0.0 mm 0.00 in0.0 mm
11:12 AM 68.9°F20.5°C 54.5°F12.5°C 60% 4.7 mph N7.6 kmh N 7.8 mph12.6 kmh 30.16 in1021.3 mb - 0.00 in0.0 mm 0.00 in0.0 mm
11:17 AM 69.4°F20.8°C 55.0°F12.8°C 60% 2.5 mph NE4.0 kmh NE 7.2 mph11.6 kmh 30.16 in1021.3 mb - 0.00 in0.0 mm 0.00 in0.0 mm
11:22 AM 69.8°F21.0°C 54.9°F12.7°C 59% 2.5 mph NNE4.0 kmh NNE 6.9 mph11.1 kmh 30.16 in1021.3 mb - 0.00 in0.0 mm 0.00 in0.0 mm
11:27 AM 70.2°F21.2°C 55.2°F12.9°C 59% 4.5 mph N7.2 kmh N 8.1 mph13.0 kmh 30.16 in1021.3 mb - 0.00 in0.0 mm 0.00 in0.0 mm
11:32 AM 70.7°F21.5°C 55.2°F12.9°C 58% 5.6 mph N9.0 kmh N 8.3 mph13.4 kmh 30.16 in1021.3 mb - 0.00 in0.0 mm 0.00 in0.0 mm
11:37 AM 71.1°F21.7°C 55.0°F12.8°C 57% 3.8 mph N6.1 kmh N 7.8 mph12.6 kmh 30.16 in1021.3 mb - 0.00 in0.0 mm 0.00 in0.0 mm
11:42 AM 71.6°F22.0°C 55.0°F12.8°C 56% 4.7 mph N7.6 kmh N 11.9 mph19.2 kmh 30.13 in1020.3 mb - 0.00 in0.0 mm 0.00 in0.0 mm
11:47 AM 71.8°F22.1°C 55.2°F12.9°C 56% 4.9 mph NE7.9 kmh NE 8.1 mph13.0 kmh 30.13 in1020.3 mb - 0.00 in0.0 mm 0.00 in0.0 mm
11:52 AM 72.1°F22.3°C 55.0°F12.8°C 55% 6.5 mph N10.5 kmh N 10.1 mph16.3 kmh 30.13 in1020.3 mb - 0.00 in0.0 mm 0.00 in0.0 mm
11:57 AM 72.3°F22.4°C 54.7°F12.6°C 54% 4.7 mph NNE7.6 kmh NNE 9.2 mph14.8 kmh 30.16 in1021.3 mb - 0.00 in0.0 mm 0.00 in0.0 mm
12:02 PM 72.5°F22.5°C 54.9°F12.7°C 54% 6.0 mph N9.7 kmh N 11.6 mph18.7 kmh 30.16 in1021.3 mb - 0.00 in0.0 mm 0.00 in0.0 mm
12:07 PM 72.9°F22.7°C 55.2°F12.9°C 54% 6.7 mph N10.8 kmh N 10.3 mph16.6 kmh 30.16 in1021.3 mb - 0.00 in0.0 mm 0.00 in0.0 mm
12:12 PM 73.2°F22.9°C 55.0°F12.8°C 53% 5.6 mph NNE9.0 kmh NNE 7.8 mph12.6 kmh 30.19 in1022.4 mb - 0.00 in0.0 mm 0.00 in0.0 mm
12:17 PM 73.4°F23.0°C 54.1°F12.3°C 51% 4.7 mph N7.6 kmh N 8.5 mph13.7 kmh 30.19 in1022.4 mb - 0.00 in0.0 mm 0.00 in0.0 mm
12:22 PM 73.6°F23.1°C 54.3°F12.4°C 51% 5.8 mph NE9.3 kmh NE 9.6 mph15.4 kmh 30.19 in1022.4 mb - 0.00 in0.0 mm 0.00 in0.0 mm
12:27 PM 73.8°F23.2°C 54.5°F12.5°C 51% 6.7 mph N10.8 kmh N 10.3 mph16.6 kmh 30.16 in1021.3 mb - 0.00 in0.0 mm 0.00 in0.0 mm
12:32 PM 74.1°F23.4°C 54.9°F12.7°C 51% 6.3 mph NNE10.1 kmh NNE 10.5 mph16.9 kmh 30.16 in1021.3 mb - 0.00 in0.0 mm 0.00 in0.0 mm
12:37 PM 74.5°F23.6°C 54.7°F12.6°C 50% 5.4 mph N8.7 kmh N 9.6 mph15.4 kmh 30.16 in1021.3 mb - 0.00 in0.0 mm 0.00 in0.0 mm
12:42 PM 74.7°F23.7°C 54.9°F12.7°C 50% 6.5 mph N10.5 kmh N 11.0 mph17.7 kmh 30.16 in1021.3 mb - 0.00 in0.0 mm 0.00 in0.0 mm
12:47 PM 74.8°F23.8°C 55.0°F12.8°C 50% 6.0 mph N9.7 kmh N 11.9 mph19.2 kmh 30.16 in1021.3 mb - 0.00 in0.0 mm 0.00 in0.0 mm
12:52 PM 75.0°F23.9°C 54.5°F12.5°C 49% 6.9 mph NNE11.1 kmh NNE 11.2 mph18.0 kmh 30.16 in1021.3 mb - 0.00 in0.0 mm 0.00 in0.0 mm
12:57 PM 75.2°F24.0°C 54.7°F12.6°C 49% 7.8 mph NE12.6 kmh NE 11.9 mph19.2 kmh 30.13 in1020.3 mb - 0.00 in0.0 mm 0.00 in0.0 mm
01:02 PM 75.6°F24.2°C 55.0°F12.8°C 49% 7.2 mph 11.6 kmh 7.2 mph11.6 kmh 30.13 in1020.3 mb - 0.00 in0.0 mm 0.00 in0.0 mm
01:07 PM 75.6°F24.2°C 55.0°F12.8°C 49% 6.9 mph NNE11.1 kmh NNE 11.0 mph17.7 kmh 30.13 in1020.3 mb - 0.00 in0.0 mm 0.00 in0.0 mm
01:12 PM 75.7°F24.3°C 55.2°F12.9°C 49% 8.1 mph N13.0 kmh N 11.6 mph18.7 kmh 30.13 in1020.3 mb - 0.00 in0.0 mm 0.00 in0.0 mm
01:17 PM 75.7°F24.3°C 55.2°F12.9°C 49% 7.8 mph N12.6 kmh N 11.0 mph17.7 kmh 30.13 in1020.3 mb - 0.00 in0.0 mm 0.00 in0.0 mm
01:22 PM 76.1°F24.5°C 55.6°F13.1°C 49% 7.6 mph NNE12.2 kmh NNE 13.6 mph21.9 kmh 30.13 in1020.3 mb - 0.00 in0.0 mm 0.00 in0.0 mm
01:27 PM 76.3°F24.6°C 55.8°F13.2°C 49% 7.4 mph N11.9 kmh N 11.4 mph18.3 kmh 30.10 in1019.3 mb - 0.00 in0.0 mm 0.00 in0.0 mm
01:32 PM 76.5°F24.7°C 55.9°F13.3°C 49% 7.4 mph N11.9 kmh N 13.0 mph20.9 kmh 30.10 in1019.3 mb - 0.00 in0.0 mm 0.00 in0.0 mm
01:37 PM 76.8°F24.9°C 56.3°F13.5°C 49% 8.3 mph NNE13.4 kmh NNE 12.3 mph19.8 kmh 30.10 in1019.3 mb - 0.00 in0.0 mm 0.00 in0.0 mm
01:42 PM 77.0°F25.0°C 55.2°F12.9°C 47% 8.1 mph NNE13.0 kmh NNE 13.9 mph22.4 kmh 30.10 in1019.3 mb - 0.00 in0.0 mm 0.00 in0.0 mm
01:47 PM 77.0°F25.0°C 55.2°F12.9°C 47% 8.7 mph NNE14.0 kmh NNE 12.5 mph20.1 kmh 30.10 in1019.3 mb - 0.00 in0.0 mm 0.00 in0.0 mm
01:52 PM 77.2°F25.1°C 55.4°F13.0°C 47% 7.2 mph NE11.6 kmh NE 11.9 mph19.2 kmh 30.10 in1019.3 mb - 0.00 in0.0 mm 0.00 in0.0 mm
01:57 PM 77.4°F25.2°C 55.6°F13.1°C 47% 8.3 mph N13.4 kmh N 8.3 mph13.4 kmh 30.10 in1019.3 mb - 0.00 in0.0 mm 0.00 in0.0 mm
02:02 PM 77.5°F25.3°C 55.8°F13.2°C 47% 8.7 mph N14.0 kmh N 13.0 mph20.9 kmh 30.10 in1019.3 mb - 0.00 in0.0 mm 0.00 in0.0 mm
02:07 PM 77.9°F25.5°C 56.1°F13.4°C 47% 8.5 mph N13.7 kmh N 12.5 mph20.1 kmh 30.10 in1019.3 mb - 0.00 in0.0 mm 0.00 in0.0 mm
02:12 PM 78.1°F25.6°C 55.6°F13.1°C 46% 6.5 mph NE10.5 kmh NE 6.5 mph10.5 kmh 30.10 in1019.3 mb - 0.00 in0.0 mm 0.00 in0.0 mm
02:17 PM 78.3°F25.7°C 55.8°F13.2°C 46% 6.7 mph NNE10.8 kmh NNE 14.3 mph23.0 kmh 30.10 in1019.3 mb - 0.00 in0.0 mm 0.00 in0.0 mm
02:22 PM 78.3°F25.7°C 55.8°F13.2°C 46% 7.4 mph N11.9 kmh N 15.0 mph24.1 kmh 30.10 in1019.3 mb - 0.00 in0.0 mm 0.00 in0.0 mm
02:27 PM 78.4°F25.8°C 55.4°F13.0°C 45% 7.8 mph N12.6 kmh N 12.3 mph19.8 kmh 30.10 in1019.3 mb - 0.00 in0.0 mm 0.00 in0.0 mm
02:32 PM 78.4°F25.8°C 55.4°F13.0°C 45% 7.4 mph N11.9 kmh N 11.2 mph18.0 kmh 30.10 in1019.3 mb - 0.00 in0.0 mm 0.00 in0.0 mm
02:37 PM 78.6°F25.9°C 55.6°F13.1°C 45% 8.3 mph N13.4 kmh N 12.5 mph20.1 kmh 30.10 in1019.3 mb - 0.00 in0.0 mm 0.00 in0.0 mm
02:42 PM 78.4°F25.8°C 55.4°F13.0°C 45% 8.3 mph NE13.4 kmh NE 13.6 mph21.9 kmh 30.07 in1018.3 mb - 0.00 in0.0 mm 0.00 in0.0 mm
02:47 PM 78.6°F25.9°C 55.6°F13.1°C 45% 8.9 mph N14.3 kmh N 13.4 mph21.6 kmh 30.07 in1018.3 mb - 0.00 in0.0 mm 0.00 in0.0 mm
02:52 PM 78.6°F25.9°C 55.6°F13.1°C 45% 8.5 mph NNE13.7 kmh NNE 12.8 mph20.6 kmh 30.07 in1018.3 mb - 0.00 in0.0 mm 0.00 in0.0 mm
02:57 PM 78.6°F25.9°C 55.6°F13.1°C 45% 8.1 mph NE13.0 kmh NE 13.2 mph21.2 kmh 30.07 in1018.3 mb - 0.00 in0.0 mm 0.00 in0.0 mm
03:02 PM 78.8°F26.0°C 55.8°F13.2°C 45% 8.9 mph NNE14.3 kmh NNE 13.0 mph20.9 kmh 30.07 in1018.3 mb - 0.00 in0.0 mm 0.00 in0.0 mm
03:07 PM 79.0°F26.1°C 55.8°F13.2°C 45% 7.4 mph N11.9 kmh N 13.2 mph21.2 kmh 30.07 in1018.3 mb - 0.00 in0.0 mm 0.00 in0.0 mm
03:12 PM 78.8°F26.0°C 55.0°F12.8°C 44% 7.6 mph NNE12.2 kmh NNE 12.8 mph20.6 kmh 30.07 in1018.3 mb - 0.00 in0.0 mm 0.00 in0.0 mm
03:17 PM 78.8°F26.0°C 55.0°F12.8°C 44% 7.8 mph N12.6 kmh N 14.5 mph23.3 kmh 30.07 in1018.3 mb - 0.00 in0.0 mm 0.00 in0.0 mm
03:22 PM 78.6°F25.9°C 54.9°F12.7°C 44% 8.9 mph 14.3 kmh 14.1 mph22.7 kmh 30.07 in1018.3 mb - 0.00 in0.0 mm 0.00 in0.0 mm
03:27 PM 78.6°F25.9°C 54.9°F12.7°C 44% 9.4 mph N15.1 kmh N 13.9 mph22.4 kmh 30.10 in1019.3 mb - 0.00 in0.0 mm 0.00 in0.0 mm
03:32 PM 78.4°F25.8°C 54.7°F12.6°C 44% 8.9 mph N14.3 kmh N 14.8 mph23.8 kmh 30.10 in1019.3 mb - 0.00 in0.0 mm 0.00 in0.0 mm
03:37 PM 78.4°F25.8°C 54.7°F12.6°C 44% 9.2 mph NNE14.8 kmh NNE 13.9 mph22.4 kmh 30.10 in1019.3 mb - 0.00 in0.0 mm 0.00 in0.0 mm
03:42 PM 78.4°F25.8°C 54.7°F12.6°C 44% 8.9 mph 14.3 kmh 13.0 mph20.9 kmh 30.10 in1019.3 mb - 0.00 in0.0 mm 0.00 in0.0 mm
03:47 PM 78.3°F25.7°C 54.5°F12.5°C 44% 8.9 mph NNE14.3 kmh NNE 13.4 mph21.6 kmh 30.10 in1019.3 mb - 0.00 in0.0 mm 0.00 in0.0 mm
03:52 PM 78.1°F25.6°C 54.3°F12.4°C 44% 8.7 mph N14.0 kmh N 13.2 mph21.2 kmh 30.10 in1019.3 mb - 0.00 in0.0 mm 0.00 in0.0 mm
03:57 PM 78.1°F25.6°C 54.3°F12.4°C 44% 9.6 mph NNE15.4 kmh NNE 13.9 mph22.4 kmh 30.10 in1019.3 mb - 0.00 in0.0 mm 0.00 in0.0 mm
04:02 PM 77.9°F25.5°C 54.3°F12.4°C 44% 9.4 mph NNE15.1 kmh NNE 14.3 mph23.0 kmh 30.10 in1019.3 mb - 0.00 in0.0 mm 0.00 in0.0 mm
04:07 PM 77.7°F25.4°C 54.7°F12.6°C 45% 9.2 mph N14.8 kmh N 13.6 mph21.9 kmh 30.10 in1019.3 mb - 0.00 in0.0 mm 0.00 in0.0 mm
04:12 PM 77.5°F25.3°C 54.5°F12.5°C 45% 9.2 mph N14.8 kmh N 14.8 mph23.8 kmh 30.07 in1018.3 mb - 0.00 in0.0 mm 0.00 in0.0 mm
04:17 PM 77.4°F25.2°C 54.3°F12.4°C 45% 9.2 mph NNE14.8 kmh NNE 13.4 mph21.6 kmh 30.07 in1018.3 mb - 0.00 in0.0 mm 0.00 in0.0 mm
04:22 PM 77.0°F25.0°C 54.0°F12.2°C 45% 10.1 mph NNE16.3 kmh NNE 15.2 mph24.5 kmh 30.07 in1018.3 mb - 0.00 in0.0 mm 0.00 in0.0 mm
04:27 PM 76.8°F24.9°C 55.0°F12.8°C 47% 9.6 mph NNE15.4 kmh NNE 14.8 mph23.8 kmh 30.07 in1018.3 mb - 0.00 in0.0 mm 0.00 in0.0 mm
04:32 PM 76.5°F24.7°C 54.7°F12.6°C 47% 9.8 mph NNE15.8 kmh NNE 9.8 mph15.8 kmh 30.07 in1018.3 mb - 0.00 in0.0 mm 0.00 in0.0 mm
04:37 PM 76.3°F24.6°C 54.5°F12.5°C 47% 8.7 mph NNE14.0 kmh NNE 13.2 mph21.2 kmh 30.07 in1018.3 mb - 0.00 in0.0 mm 0.00 in0.0 mm
04:42 PM 76.1°F24.5°C 55.0°F12.8°C 48% 9.2 mph NNE14.8 kmh NNE 13.4 mph21.6 kmh 30.10 in1019.3 mb - 0.00 in0.0 mm 0.00 in0.0 mm
04:47 PM 75.7°F24.3°C 54.7°F12.6°C 48% 8.5 mph NNE13.7 kmh NNE 8.5 mph13.7 kmh 30.10 in1019.3 mb - 0.00 in0.0 mm 0.00 in0.0 mm
04:52 PM 75.6°F24.2°C 54.5°F12.5°C 48% 9.2 mph NNE14.8 kmh NNE 14.3 mph23.0 kmh 30.10 in1019.3 mb - 0.00 in0.0 mm 0.00 in0.0 mm
04:57 PM 75.2°F24.0°C 54.7°F12.6°C 49% 7.4 mph NNE11.9 kmh NNE 13.0 mph20.9 kmh 30.10 in1019.3 mb - 0.00 in0.0 mm 0.00 in0.0 mm
05:02 PM 75.0°F23.9°C 54.5°F12.5°C 49% 8.5 mph NNE13.7 kmh NNE 12.5 mph20.1 kmh 30.10 in1019.3 mb - 0.00 in0.0 mm 0.00 in0.0 mm
05:07 PM 74.7°F23.7°C 54.3°F12.4°C 49% 6.5 mph N10.5 kmh N 10.5 mph16.9 kmh 30.10 in1019.3 mb - 0.00 in0.0 mm 0.00 in0.0 mm
05:12 PM 74.1°F23.4°C 53.8°F12.1°C 49% 7.6 mph N12.2 kmh N 15.4 mph24.8 kmh 30.13 in1020.3 mb - 0.00 in0.0 mm 0.00 in0.0 mm
05:17 PM 73.8°F23.2°C 54.0°F12.2°C 50% 9.8 mph N15.8 kmh N 15.2 mph24.5 kmh 30.13 in1020.3 mb - 0.00 in0.0 mm 0.00 in0.0 mm
05:22 PM 73.6°F23.1°C 53.8°F12.1°C 50% 7.8 mph NNE12.6 kmh NNE 13.0 mph20.9 kmh 30.13 in1020.3 mb - 0.00 in0.0 mm 0.00 in0.0 mm
05:27 PM 73.2°F22.9°C 54.5°F12.5°C 52% 8.5 mph N13.7 kmh N 12.1 mph19.5 kmh 30.13 in1020.3 mb - 0.00 in0.0 mm 0.00 in0.0 mm
05:32 PM 72.9°F22.7°C 54.1°F12.3°C 52% 6.5 mph N10.5 kmh N 11.2 mph18.0 kmh 30.13 in1020.3 mb - 0.00 in0.0 mm 0.00 in0.0 mm
05:37 PM 72.5°F22.5°C 54.3°F12.4°C 53% 8.5 mph NNE13.7 kmh NNE 13.9 mph22.4 kmh 30.13 in1020.3 mb - 0.00 in0.0 mm 0.00 in0.0 mm
05:42 PM 72.0°F22.2°C 54.0°F12.2°C 53% 7.6 mph N12.2 kmh N 13.0 mph20.9 kmh 30.13 in1020.3 mb - 0.00 in0.0 mm 0.00 in0.0 mm
05:47 PM 71.6°F22.0°C 54.1°F12.3°C 54% 5.8 mph N9.3 kmh N 12.5 mph20.1 kmh 30.13 in1020.3 mb - 0.00 in0.0 mm 0.00 in0.0 mm
05:52 PM 71.2°F21.8°C 53.8°F12.1°C 54% 6.0 mph NE9.7 kmh NE 9.8 mph15.8 kmh 30.13 in1020.3 mb - 0.00 in0.0 mm 0.00 in0.0 mm
05:57 PM 70.9°F21.6°C 54.5°F12.5°C 56% 5.6 mph N9.0 kmh N 8.5 mph13.7 kmh 30.16 in1021.3 mb - 0.00 in0.0 mm 0.00 in0.0 mm
06:02 PM 70.3°F21.3°C 54.0°F12.2°C 56% 4.3 mph N6.9 kmh N 8.3 mph13.4 kmh 30.16 in1021.3 mb - 0.00 in0.0 mm 0.00 in0.0 mm
06:07 PM 70.2°F21.2°C 54.1°F12.3°C 57% 5.8 mph NNE9.3 kmh NNE 9.8 mph15.8 kmh 30.16 in1021.3 mb - 0.00 in0.0 mm 0.00 in0.0 mm
06:12 PM 69.8°F21.0°C 54.3°F12.4°C 58% 5.1 mph NNE8.2 kmh NNE 8.9 mph14.3 kmh 30.16 in1021.3 mb - 0.00 in0.0 mm 0.00 in0.0 mm
06:17 PM 69.4°F20.8°C 54.0°F12.2°C 58% 5.4 mph N8.7 kmh N 8.5 mph13.7 kmh 30.16 in1021.3 mb - 0.00 in0.0 mm 0.00 in0.0 mm
06:22 PM 69.1°F20.6°C 54.1°F12.3°C 59% 4.9 mph N7.9 kmh N 4.9 mph7.9 kmh 30.16 in1021.3 mb - 0.00 in0.0 mm 0.00 in0.0 mm
06:27 PM 68.9°F20.5°C 54.0°F12.2°C 59% 5.4 mph NE8.7 kmh NE 9.2 mph14.8 kmh 30.19 in1022.4 mb - 0.00 in0.0 mm 0.00 in0.0 mm
06:32 PM 68.5°F20.3°C 54.1°F12.3°C 60% 5.4 mph N8.7 kmh N 8.5 mph13.7 kmh 30.19 in1022.4 mb - 0.00 in0.0 mm 0.00 in0.0 mm
06:37 PM 68.4°F20.2°C 54.0°F12.2°C 60% 4.5 mph NE7.2 kmh NE 7.2 mph11.6 kmh 30.19 in1022.4 mb - 0.00 in0.0 mm 0.00 in0.0 mm
06:42 PM 68.2°F20.1°C 54.1°F12.3°C 61% 3.4 mph NNE5.5 kmh NNE 8.1 mph13.0 kmh 30.13 in1020.3 mb - 0.00 in0.0 mm 0.00 in0.0 mm
06:47 PM 67.8°F19.9°C 54.3°F12.4°C 62% 3.6 mph NE5.8 kmh NE 7.6 mph12.2 kmh 30.13 in1020.3 mb - 0.00 in0.0 mm 0.00 in0.0 mm
06:52 PM 67.6°F19.8°C 54.1°F12.3°C 62% 3.6 mph NNE5.8 kmh NNE 8.1 mph13.0 kmh 30.13 in1020.3 mb - 0.00 in0.0 mm 0.00 in0.0 mm
06:57 PM 67.1°F19.5°C 54.1°F12.3°C 63% 1.3 mph NE2.1 kmh NE 4.3 mph6.9 kmh 30.16 in1021.3 mb - 0.00 in0.0 mm 0.00 in0.0 mm
07:02 PM 66.7°F19.3°C 54.1°F12.3°C 64% 2.7 mph NNE4.3 kmh NNE 4.0 mph6.4 kmh 30.16 in1021.3 mb - 0.00 in0.0 mm 0.00 in0.0 mm
07:07 PM 66.4°F19.1°C 53.8°F12.1°C 64% 3.1 mph N5.0 kmh N 4.7 mph7.6 kmh 30.16 in1021.3 mb - 0.00 in0.0 mm 0.00 in0.0 mm
07:12 PM 66.0°F18.9°C 54.3°F12.4°C 66% 3.4 mph NE5.5 kmh NE 5.4 mph8.7 kmh 30.16 in1021.3 mb - 0.00 in0.0 mm 0.00 in0.0 mm
07:17 PM 65.7°F18.7°C 54.0°F12.2°C 66% 3.8 mph NNE6.1 kmh NNE 6.0 mph9.7 kmh 30.16 in1021.3 mb - 0.00 in0.0 mm 0.00 in0.0 mm
07:22 PM 65.5°F18.6°C 54.3°F12.4°C 67% 3.4 mph N5.5 kmh N 4.7 mph7.6 kmh 30.16 in1021.3 mb - 0.00 in0.0 mm 0.00 in0.0 mm
07:27 PM 65.1°F18.4°C 54.0°F12.2°C 67% 2.9 mph N4.7 kmh N 4.3 mph6.9 kmh 30.19 in1022.4 mb - 0.00 in0.0 mm 0.00 in0.0 mm
07:32 PM 64.8°F18.2°C 54.0°F12.2°C 68% 2.0 mph NNE3.2 kmh NNE 3.4 mph5.5 kmh 30.19 in1022.4 mb - 0.00 in0.0 mm 0.00 in0.0 mm
07:37 PM 64.6°F18.1°C 53.8°F12.1°C 68% 2.2 mph N3.5 kmh N 3.1 mph5.0 kmh 30.19 in1022.4 mb - 0.00 in0.0 mm 0.00 in0.0 mm
07:42 PM 64.2°F17.9°C 53.4°F11.9°C 68% 2.5 mph NNE4.0 kmh NNE 3.6 mph5.8 kmh 30.19 in1022.4 mb - 0.00 in0.0 mm 0.00 in0.0 mm
07:47 PM 64.0°F17.8°C 53.2°F11.8°C 68% 1.3 mph NE2.1 kmh NE 2.9 mph4.7 kmh 30.19 in1022.4 mb - 0.00 in0.0 mm 0.00 in0.0 mm
07:52 PM 63.5°F17.5°C 53.2°F11.8°C 69% Calm Calm -- 30.19 in1022.4 mb - 0.00 in0.0 mm 0.00 in0.0 mm
07:57 PM 63.1°F17.3°C 52.9°F11.6°C 69% Calm Calm -- 30.19 in1022.4 mb - 0.00 in0.0 mm 0.00 in0.0 mm
08:02 PM 63.0°F17.2°C 53.1°F11.7°C 70% Calm Calm -- 30.19 in1022.4 mb - 0.00 in0.0 mm 0.00 in0.0 mm
08:07 PM 62.4°F16.9°C 52.9°F11.6°C 71% Calm Calm -- 30.19 in1022.4 mb - 0.00 in0.0 mm 0.00 in0.0 mm
08:12 PM 62.1°F16.7°C 52.5°F11.4°C 71% 0.4 mph S0.6 kmh S 2.2 mph3.5 kmh 30.22 in1023.4 mb - 0.00 in0.0 mm 0.00 in0.0 mm
08:17 PM 61.7°F16.5°C 52.5°F11.4°C 72% Calm Calm -- 30.22 in1023.4 mb - 0.00 in0.0 mm 0.00 in0.0 mm
08:22 PM 61.3°F16.3°C 52.2°F11.2°C 72% 0.2 mph S0.3 kmh S 2.9 mph4.7 kmh 30.22 in1023.4 mb - 0.00 in0.0 mm 0.00 in0.0 mm
08:27 PM 61.0°F16.1°C 52.3°F11.3°C 73% 0.9 mph S1.4 kmh S 2.5 mph4.0 kmh 30.22 in1023.4 mb - 0.00 in0.0 mm 0.00 in0.0 mm
08:32 PM 60.8°F16.0°C 52.2°F11.2°C 73% Calm Calm -- 30.22 in1023.4 mb - 0.00 in0.0 mm 0.00 in0.0 mm
08:37 PM 60.4°F15.8°C 51.8°F11.0°C 73% 0.2 mph S0.3 kmh S 1.3 mph2.1 kmh 30.22 in1023.4 mb - 0.00 in0.0 mm 0.00 in0.0 mm
08:42 PM 60.1°F15.6°C 51.4°F10.8°C 73% Calm Calm -- 30.22 in1023.4 mb - 0.00 in0.0 mm 0.00 in0.0 mm
08:47 PM 59.9°F15.5°C 51.3°F10.7°C 73% Calm Calm -- 30.22 in1023.4 mb - 0.00 in0.0 mm 0.00 in0.0 mm
08:52 PM 59.5°F15.3°C 51.3°F10.7°C 74% Calm Calm -- 30.22 in1023.4 mb - 0.00 in0.0 mm 0.00 in0.0 mm
08:57 PM 59.4°F15.2°C 51.1°F10.6°C 74% Calm Calm -- 30.22 in1023.4 mb - 0.00 in0.0 mm 0.00 in0.0 mm
09:02 PM 59.2°F15.1°C 50.9°F10.5°C 74% Calm Calm -- 30.22 in1023.4 mb - 0.00 in0.0 mm 0.00 in0.0 mm
09:07 PM 58.8°F14.9°C 50.9°F10.5°C 75% Calm Calm -- 30.22 in1023.4 mb - 0.00 in0.0 mm 0.00 in0.0 mm
09:12 PM 58.6°F14.8°C 50.7°F10.4°C 75% Calm Calm -- 30.19 in1022.4 mb - 0.00 in0.0 mm 0.00 in0.0 mm
09:17 PM 58.3°F14.6°C 50.4°F10.2°C 75% Calm Calm -- 30.19 in1022.4 mb - 0.00 in0.0 mm 0.00 in0.0 mm
09:22 PM 58.1°F14.5°C 50.2°F10.1°C 75% Calm Calm -- 30.19 in1022.4 mb - 0.00 in0.0 mm 0.00 in0.0 mm
09:27 PM 57.7°F14.3°C 50.2°F10.1°C 76% Calm Calm -- 30.22 in1023.4 mb - 0.00 in0.0 mm 0.00 in0.0 mm
09:32 PM 57.6°F14.2°C 50.0°F10.0°C 76% Calm Calm -- 30.22 in1023.4 mb - 0.00 in0.0 mm 0.00 in0.0 mm
09:37 PM 57.4°F14.1°C 49.8°F9.9°C 76% Calm Calm -- 30.22 in1023.4 mb - 0.00 in0.0 mm 0.00 in0.0 mm
09:42 PM 57.2°F14.0°C 49.6°F9.8°C 76% Calm Calm -- 30.22 in1023.4 mb - 0.00 in0.0 mm 0.00 in0.0 mm
09:47 PM 57.0°F13.9°C 49.5°F9.7°C 76% Calm Calm -- 30.22 in1023.4 mb - 0.00 in0.0 mm 0.00 in0.0 mm
09:52 PM 56.7°F13.7°C 49.3°F9.6°C 76% Calm Calm -- 30.22 in1023.4 mb - 0.00 in0.0 mm 0.00 in0.0 mm
09:57 PM 56.5°F13.6°C 49.3°F9.6°C 77% Calm Calm -- 30.22 in1023.4 mb - 0.00 in0.0 mm 0.00 in0.0 mm
10:02 PM 56.1°F13.4°C 49.1°F9.5°C 77% Calm Calm -- 30.22 in1023.4 mb - 0.00 in0.0 mm 0.00 in0.0 mm
10:07 PM 55.9°F13.3°C 48.9°F9.4°C 77% Calm Calm -- 30.22 in1023.4 mb - 0.00 in0.0 mm 0.00 in0.0 mm
10:12 PM 55.8°F13.2°C 48.7°F9.3°C 77% Calm Calm -- 30.25 in1024.4 mb - 0.00 in0.0 mm 0.00 in0.0 mm
10:17 PM 55.8°F13.2°C 49.1°F9.5°C 78% Calm Calm -- 30.25 in1024.4 mb - 0.00 in0.0 mm 0.00 in0.0 mm
10:22 PM 55.6°F13.1°C 48.9°F9.4°C 78% Calm Calm -- 30.25 in1024.4 mb - 0.00 in0.0 mm 0.00 in0.0 mm
10:27 PM 55.4°F13.0°C 48.7°F9.3°C 78% Calm Calm -- 30.25 in1024.4 mb - 0.00 in0.0 mm 0.00 in0.0 mm
10:32 PM 55.2°F12.9°C 48.6°F9.2°C 78% Calm Calm -- 30.25 in1024.4 mb - 0.00 in0.0 mm 0.00 in0.0 mm
10:37 PM 55.2°F12.9°C 48.9°F9.4°C 79% Calm Calm -- 30.25 in1024.4 mb - 0.00 in0.0 mm 0.00 in0.0 mm
10:42 PM 55.0°F12.8°C 48.7°F9.3°C 79% Calm Calm -- 30.25 in1024.4 mb - 0.00 in0.0 mm 0.00 in0.0 mm
10:47 PM 55.0°F12.8°C 48.7°F9.3°C 79% Calm Calm -- 30.25 in1024.4 mb - 0.00 in0.0 mm 0.00 in0.0 mm
10:52 PM 55.0°F12.8°C 48.7°F9.3°C 79% Calm Calm -- 30.25 in1024.4 mb - 0.00 in0.0 mm 0.00 in0.0 mm
10:57 PM 55.0°F12.8°C 48.7°F9.3°C 79% Calm Calm -- 30.25 in1024.4 mb - 0.00 in0.0 mm 0.00 in0.0 mm
11:02 PM 54.9°F12.7°C 48.6°F9.2°C 79% Calm Calm -- 30.25 in1024.4 mb - 0.00 in0.0 mm 0.00 in0.0 mm
11:07 PM 54.5°F12.5°C 48.2°F9.0°C 79% Calm Calm -- 30.25 in1024.4 mb - 0.00 in0.0 mm 0.00 in0.0 mm
11:12 PM 54.3°F12.4°C 48.0°F8.9°C 79% Calm Calm -- 30.25 in1024.4 mb - 0.00 in0.0 mm 0.00 in0.0 mm
11:17 PM 54.3°F12.4°C 48.0°F8.9°C 79% Calm Calm -- 30.25 in1024.4 mb - 0.00 in0.0 mm 0.00 in0.0 mm
11:22 PM 54.1°F12.3°C 47.8°F8.8°C 79% Calm Calm -- 30.25 in1024.4 mb - 0.00 in0.0 mm 0.00 in0.0 mm
11:27 PM 54.1°F12.3°C 47.8°F8.8°C 79% Calm Calm -- 30.25 in1024.4 mb - 0.00 in0.0 mm 0.00 in0.0 mm
11:32 PM 54.0°F12.2°C 48.0°F8.9°C 80% Calm Calm -- 30.25 in1024.4 mb - 0.00 in0.0 mm 0.00 in0.0 mm
11:37 PM 54.0°F12.2°C 48.0°F8.9°C 80% Calm Calm -- 30.25 in1024.4 mb - 0.00 in0.0 mm 0.00 in0.0 mm
11:42 PM 53.8°F12.1°C 47.8°F8.8°C 80% Calm Calm -- 30.25 in1024.4 mb - 0.00 in0.0 mm 0.00 in0.0 mm
11:47 PM 53.8°F12.1°C 47.8°F8.8°C 80% Calm Calm -- 30.25 in1024.4 mb - 0.00 in0.0 mm 0.00 in0.0 mm
11:52 PM 53.8°F12.1°C 48.0°F8.9°C 81% Calm Calm -- 30.25 in1024.4 mb - 0.00 in0.0 mm 0.00 in0.0 mm
11:57 PM 53.8°F12.1°C 48.0°F8.9°C 81% Calm Calm -- 30.28 in1025.4 mb - 0.00 in0.0 mm 0.00 in0.0 mm